sensor_id;sensor_type;location;lat;lon;timestamp;temperature;humidity
22633;DHT22;11483;55.828;37.488;2022-07-29T00:00:18;17.20;99.90
22633;DHT22;11483;55.828;37.488;2022-07-29T00:02:43;17.20;99.90
22633;DHT22;11483;55.828;37.488;2022-07-29T00:05:10;17.00;99.90
22633;DHT22;11483;55.828;37.488;2022-07-29T00:07:39;17.00;99.90
22633;DHT22;11483;55.828;37.488;2022-07-29T00:10:05;16.80;99.90
22633;DHT22;11483;55.828;37.488;2022-07-29T00:12:32;16.90;99.90
22633;DHT22;11483;55.828;37.488;2022-07-29T00:14:57;16.90;99.90
22633;DHT22;11483;55.828;37.488;2022-07-29T00:17:24;16.80;99.90
22633;DHT22;11483;55.828;37.488;2022-07-29T00:19:50;16.80;99.90
22633;DHT22;11483;55.828;37.488;2022-07-29T00:22:16;16.70;99.90
22633;DHT22;11483;55.828;37.488;2022-07-29T00:24:42;16.80;99.90
22633;DHT22;11483;55.828;37.488;2022-07-29T00:27:08;16.70;99.90
22633;DHT22;11483;55.828;37.488;2022-07-29T00:29:34;16.60;99.90
22633;DHT22;11483;55.828;37.488;2022-07-29T00:31:59;16.60;99.90
22633;DHT22;11483;55.828;37.488;2022-07-29T00:34:25;16.60;99.90
22633;DHT22;11483;55.828;37.488;2022-07-29T00:37:10;16.60;99.90
22633;DHT22;11483;55.828;37.488;2022-07-29T00:39:35;16.50;99.90
22633;DHT22;11483;55.828;37.488;2022-07-29T00:42:05;16.60;99.90
22633;DHT22;11483;55.828;37.488;2022-07-29T00:44:32;16.40;99.90
22633;DHT22;11483;55.828;37.488;2022-07-29T00:47:01;16.50;99.90
22633;DHT22;11483;55.828;37.488;2022-07-29T00:49:27;16.50;99.90
22633;DHT22;11483;55.828;37.488;2022-07-29T00:51:53;16.60;99.90
22633;DHT22;11483;55.828;37.488;2022-07-29T00:54:19;16.50;99.90
22633;DHT22;11483;55.828;37.488;2022-07-29T00:56:45;16.40;99.90
22633;DHT22;11483;55.828;37.488;2022-07-29T00:59:11;16.40;99.90
22633;DHT22;11483;55.828;37.488;2022-07-29T01:01:37;16.40;99.90
22633;DHT22;11483;55.828;37.488;2022-07-29T01:04:03;16.30;99.90
22633;DHT22;11483;55.828;37.488;2022-07-29T01:06:28;16.30;99.90
22633;DHT22;11483;55.828;37.488;2022-07-29T01:08:55;16.20;99.90
22633;DHT22;11483;55.828;37.488;2022-07-29T01:11:22;16.30;99.90
22633;DHT22;11483;55.828;37.488;2022-07-29T01:13:47;16.30;99.90
22633;DHT22;11483;55.828;37.488;2022-07-29T01:16:20;16.30;99.90
22633;DHT22;11483;55.828;37.488;2022-07-29T01:18:49;16.30;99.90
22633;DHT22;11483;55.828;37.488;2022-07-29T01:26:49;16.20;99.90
22633;DHT22;11483;55.828;37.488;2022-07-29T01:29:41;16.10;99.90
22633;DHT22;11483;55.828;37.488;2022-07-29T01:32:13;16.10;99.90
22633;DHT22;11483;55.828;37.488;2022-07-29T01:34:48;16.10;99.90
22633;DHT22;11483;55.828;37.488;2022-07-29T01:37:43;16.10;99.90
22633;DHT22;11483;55.828;37.488;2022-07-29T01:40:34;16.10;99.90
22633;DHT22;11483;55.828;37.488;2022-07-29T01:43:09;16.10;99.90
22633;DHT22;11483;55.828;37.488;2022-07-29T01:45:48;16.10;99.90
22633;DHT22;11483;55.828;37.488;2022-07-29T01:48:20;16.00;99.90
22633;DHT22;11483;55.828;37.488;2022-07-29T01:50:56;14.80;99.90
22633;DHT22;11483;55.828;37.488;2022-07-29T01:53:29;16.00;99.90
22633;DHT22;11483;55.828;37.488;2022-07-29T01:55:58;16.00;99.90
22633;DHT22;11483;55.828;37.488;2022-07-29T01:58:27;16.00;99.90
22633;DHT22;11483;55.828;37.488;2022-07-29T02:00:55;16.00;99.90
22633;DHT22;11483;55.828;37.488;2022-07-29T02:03:23;16.00;99.90
22633;DHT22;11483;55.828;37.488;2022-07-29T02:05:50;16.00;99.90
22633;DHT22;11483;55.828;37.488;2022-07-29T02:08:18;16.00;99.90
22633;DHT22;11483;55.828;37.488;2022-07-29T02:10:45;16.00;99.90
22633;DHT22;11483;55.828;37.488;2022-07-29T02:13:13;16.00;99.90
22633;DHT22;11483;55.828;37.488;2022-07-29T02:15:42;16.00;99.90
22633;DHT22;11483;55.828;37.488;2022-07-29T02:18:13;16.00;99.90
22633;DHT22;11483;55.828;37.488;2022-07-29T02:20:43;15.90;99.90
22633;DHT22;11483;55.828;37.488;2022-07-29T02:23:11;16.00;99.90
22633;DHT22;11483;55.828;37.488;2022-07-29T02:25:38;16.00;99.90
22633;DHT22;11483;55.828;37.488;2022-07-29T02:28:05;16.00;99.90
22633;DHT22;11483;55.828;37.488;2022-07-29T02:30:32;16.00;99.90
22633;DHT22;11483;55.828;37.488;2022-07-29T02:32:59;16.10;99.90
22633;DHT22;11483;55.828;37.488;2022-07-29T02:35:27;16.10;99.90
22633;DHT22;11483;55.828;37.488;2022-07-29T02:37:53;16.10;99.90
22633;DHT22;11483;55.828;37.488;2022-07-29T02:40:38;16.10;99.90
22633;DHT22;11483;55.828;37.488;2022-07-29T02:43:06;16.10;99.90
22633;DHT22;11483;55.828;37.488;2022-07-29T02:45:33;16.10;99.90
22633;DHT22;11483;55.828;37.488;2022-07-29T02:48:08;16.10;99.90
22633;DHT22;11483;55.828;37.488;2022-07-29T02:50:45;16.20;99.90
22633;DHT22;11483;55.828;37.488;2022-07-29T02:53:17;16.10;99.90
22633;DHT22;11483;55.828;37.488;2022-07-29T02:55:48;16.20;99.90
22633;DHT22;11483;55.828;37.488;2022-07-29T02:58:27;16.20;99.90
22633;DHT22;11483;55.828;37.488;2022-07-29T03:00:59;16.30;99.90
22633;DHT22;11483;55.828;37.488;2022-07-29T03:03:31;16.20;99.90
22633;DHT22;11483;55.828;37.488;2022-07-29T03:05:59;16.20;99.90
22633;DHT22;11483;55.828;37.488;2022-07-29T03:08:27;16.30;99.90
22633;DHT22;11483;55.828;37.488;2022-07-29T03:10:53;16.30;99.90
22633;DHT22;11483;55.828;37.488;2022-07-29T03:13:19;16.30;99.90
22633;DHT22;11483;55.828;37.488;2022-07-29T03:15:47;16.40;99.90
22633;DHT22;11483;55.828;37.488;2022-07-29T03:18:13;16.40;99.90
22633;DHT22;11483;55.828;37.488;2022-07-29T03:20:40;16.40;99.90
22633;DHT22;11483;55.828;37.488;2022-07-29T03:23:06;16.50;99.90
22633;DHT22;11483;55.828;37.488;2022-07-29T03:25:33;16.60;99.90
22633;DHT22;11483;55.828;37.488;2022-07-29T03:27:59;16.70;99.90
22633;DHT22;11483;55.828;37.488;2022-07-29T03:30:25;16.70;99.90
22633;DHT22;11483;55.828;37.488;2022-07-29T03:32:51;16.80;99.90
22633;DHT22;11483;55.828;37.488;2022-07-29T03:35:20;16.90;99.90
22633;DHT22;11483;55.828;37.488;2022-07-29T03:37:46;17.00;99.90
22633;DHT22;11483;55.828;37.488;2022-07-29T03:40:16;17.10;99.90
22633;DHT22;11483;55.828;37.488;2022-07-29T03:42:43;17.10;99.90
22633;DHT22;11483;55.828;37.488;2022-07-29T03:45:13;17.00;99.90
22633;DHT22;11483;55.828;37.488;2022-07-29T03:47:43;17.10;99.90
22633;DHT22;11483;55.828;37.488;2022-07-29T03:50:15;17.20;99.90
22633;DHT22;11483;55.828;37.488;2022-07-29T03:52:41;17.30;99.90
22633;DHT22;11483;55.828;37.488;2022-07-29T03:55:08;17.30;99.90
22633;DHT22;11483;55.828;37.488;2022-07-29T03:57:35;17.30;99.90
22633;DHT22;11483;55.828;37.488;2022-07-29T04:00:03;17.40;99.90
22633;DHT22;11483;55.828;37.488;2022-07-29T04:02:31;17.40;99.90
22633;DHT22;11483;55.828;37.488;2022-07-29T04:04:58;17.50;99.90
22633;DHT22;11483;55.828;37.488;2022-07-29T04:07:24;17.40;99.90
22633;DHT22;11483;55.828;37.488;2022-07-29T04:09:50;17.50;99.90
22633;DHT22;11483;55.828;37.488;2022-07-29T04:12:15;17.60;99.90
22633;DHT22;11483;55.828;37.488;2022-07-29T04:14:41;17.60;99.90
22633;DHT22;11483;55.828;37.488;2022-07-29T04:17:07;17.60;99.90
22633;DHT22;11483;55.828;37.488;2022-07-29T04:19:33;17.60;99.90
22633;DHT22;11483;55.828;37.488;2022-07-29T04:22:00;17.50;99.90
22633;DHT22;11483;55.828;37.488;2022-07-29T04:24:26;17.50;99.90
22633;DHT22;11483;55.828;37.488;2022-07-29T04:26:52;17.50;99.90
22633;DHT22;11483;55.828;37.488;2022-07-29T04:29:18;17.50;99.90
22633;DHT22;11483;55.828;37.488;2022-07-29T04:31:45;17.50;99.90
22633;DHT22;11483;55.828;37.488;2022-07-29T04:34:11;17.70;99.90
22633;DHT22;11483;55.828;37.488;2022-07-29T04:36:37;17.80;99.90
22633;DHT22;11483;55.828;37.488;2022-07-29T04:39:03;17.80;99.90
22633;DHT22;11483;55.828;37.488;2022-07-29T04:41:29;17.80;99.90
22633;DHT22;11483;55.828;37.488;2022-07-29T04:43:55;17.90;99.90
22633;DHT22;11483;55.828;37.488;2022-07-29T04:46:20;18.00;99.90
22633;DHT22;11483;55.828;37.488;2022-07-29T04:48:46;18.00;99.90
22633;DHT22;11483;55.828;37.488;2022-07-29T04:51:14;18.10;99.90
22633;DHT22;11483;55.828;37.488;2022-07-29T04:53:40;18.00;99.90
22633;DHT22;11483;55.828;37.488;2022-07-29T04:56:06;18.10;99.90
22633;DHT22;11483;55.828;37.488;2022-07-29T04:58:34;18.10;99.90
22633;DHT22;11483;55.828;37.488;2022-07-29T05:01:00;18.20;99.90
22633;DHT22;11483;55.828;37.488;2022-07-29T05:03:25;18.30;99.90
22633;DHT22;11483;55.828;37.488;2022-07-29T05:05:51;18.40;99.90
22633;DHT22;11483;55.828;37.488;2022-07-29T05:08:17;18.50;99.90
22633;DHT22;11483;55.828;37.488;2022-07-29T05:10:43;18.50;99.90
22633;DHT22;11483;55.828;37.488;2022-07-29T05:13:09;18.60;99.90
22633;DHT22;11483;55.828;37.488;2022-07-29T05:15:35;18.60;99.90
22633;DHT22;11483;55.828;37.488;2022-07-29T05:18:02;18.40;99.90
22633;DHT22;11483;55.828;37.488;2022-07-29T05:20:29;18.40;99.90
22633;DHT22;11483;55.828;37.488;2022-07-29T05:22:56;18.40;99.90
22633;DHT22;11483;55.828;37.488;2022-07-29T05:25:22;18.60;99.90
22633;DHT22;11483;55.828;37.488;2022-07-29T05:27:48;18.70;99.90
22633;DHT22;11483;55.828;37.488;2022-07-29T05:30:14;18.70;99.90
22633;DHT22;11483;55.828;37.488;2022-07-29T05:32:39;18.90;99.90
22633;DHT22;11483;55.828;37.488;2022-07-29T05:35:06;18.80;99.90
22633;DHT22;11483;55.828;37.488;2022-07-29T05:37:32;18.90;99.90
22633;DHT22;11483;55.828;37.488;2022-07-29T05:39:58;18.90;99.90
22633;DHT22;11483;55.828;37.488;2022-07-29T05:42:25;18.90;99.90
22633;DHT22;11483;55.828;37.488;2022-07-29T05:44:51;19.00;99.90
22633;DHT22;11483;55.828;37.488;2022-07-29T05:47:17;19.20;99.90
22633;DHT22;11483;55.828;37.488;2022-07-29T05:49:43;19.10;99.90
22633;DHT22;11483;55.828;37.488;2022-07-29T05:52:09;19.10;99.90
22633;DHT22;11483;55.828;37.488;2022-07-29T05:54:35;19.20;99.90
22633;DHT22;11483;55.828;37.488;2022-07-29T05:57:03;19.30;99.90
22633;DHT22;11483;55.828;37.488;2022-07-29T05:59:29;19.40;99.90
22633;DHT22;11483;55.828;37.488;2022-07-29T06:01:55;19.50;99.90
22633;DHT22;11483;55.828;37.488;2022-07-29T06:04:20;19.50;99.90
22633;DHT22;11483;55.828;37.488;2022-07-29T06:06:46;19.70;99.90
22633;DHT22;11483;55.828;37.488;2022-07-29T06:09:12;19.80;99.90
22633;DHT22;11483;55.828;37.488;2022-07-29T06:11:39;19.90;99.90
22633;DHT22;11483;55.828;37.488;2022-07-29T06:14:05;19.80;99.90
22633;DHT22;11483;55.828;37.488;2022-07-29T06:16:31;20.00;99.90
22633;DHT22;11483;55.828;37.488;2022-07-29T06:18:56;20.00;99.90
22633;DHT22;11483;55.828;37.488;2022-07-29T06:21:22;20.00;99.90
22633;DHT22;11483;55.828;37.488;2022-07-29T06:23:48;19.90;99.90
22633;DHT22;11483;55.828;37.488;2022-07-29T06:26:14;20.10;99.90
22633;DHT22;11483;55.828;37.488;2022-07-29T06:28:40;20.20;99.90
22633;DHT22;11483;55.828;37.488;2022-07-29T06:31:06;20.50;99.90
22633;DHT22;11483;55.828;37.488;2022-07-29T06:33:31;20.60;99.90
22633;DHT22;11483;55.828;37.488;2022-07-29T06:35:57;20.40;99.90
22633;DHT22;11483;55.828;37.488;2022-07-29T06:38:23;20.30;99.90
22633;DHT22;11483;55.828;37.488;2022-07-29T06:40:49;20.60;99.90
22633;DHT22;11483;55.828;37.488;2022-07-29T06:43:33;20.60;99.90
22633;DHT22;11483;55.828;37.488;2022-07-29T06:46:05;20.50;99.90
22633;DHT22;11483;55.828;37.488;2022-07-29T06:48:32;20.70;99.90
22633;DHT22;11483;55.828;37.488;2022-07-29T06:50:59;20.80;99.90
22633;DHT22;11483;55.828;37.488;2022-07-29T06:53:26;20.70;99.90
22633;DHT22;11483;55.828;37.488;2022-07-29T06:55:52;20.50;99.90
22633;DHT22;11483;55.828;37.488;2022-07-29T06:58:18;20.70;99.90
22633;DHT22;11483;55.828;37.488;2022-07-29T07:00:47;20.90;99.90
22633;DHT22;11483;55.828;37.488;2022-07-29T07:03:15;21.10;99.90
22633;DHT22;11483;55.828;37.488;2022-07-29T07:05:41;21.10;99.90
22633;DHT22;11483;55.828;37.488;2022-07-29T07:08:07;21.40;99.90
22633;DHT22;11483;55.828;37.488;2022-07-29T07:10:34;21.20;99.90
22633;DHT22;11483;55.828;37.488;2022-07-29T07:13:00;21.20;99.90
22633;DHT22;11483;55.828;37.488;2022-07-29T07:15:27;21.20;99.90
22633;DHT22;11483;55.828;37.488;2022-07-29T07:17:53;21.50;99.90
22633;DHT22;11483;55.828;37.488;2022-07-29T07:20:19;21.50;99.90
22633;DHT22;11483;55.828;37.488;2022-07-29T07:22:45;21.70;99.90
22633;DHT22;11483;55.828;37.488;2022-07-29T07:25:12;21.90;99.90
22633;DHT22;11483;55.828;37.488;2022-07-29T07:27:37;22.10;99.90
22633;DHT22;11483;55.828;37.488;2022-07-29T07:30:07;22.20;99.90
22633;DHT22;11483;55.828;37.488;2022-07-29T07:32:34;22.40;99.90
22633;DHT22;11483;55.828;37.488;2022-07-29T07:35:00;22.40;99.90
22633;DHT22;11483;55.828;37.488;2022-07-29T07:37:26;22.60;99.90
22633;DHT22;11483;55.828;37.488;2022-07-29T07:39:52;22.50;99.90
22633;DHT22;11483;55.828;37.488;2022-07-29T07:42:19;22.80;99.90
22633;DHT22;11483;55.828;37.488;2022-07-29T07:44:45;23.20;99.90
22633;DHT22;11483;55.828;37.488;2022-07-29T07:47:12;23.40;99.90
22633;DHT22;11483;55.828;37.488;2022-07-29T07:49:39;23.50;99.90
22633;DHT22;11483;55.828;37.488;2022-07-29T07:52:05;23.30;99.90
22633;DHT22;11483;55.828;37.488;2022-07-29T07:54:37;23.30;99.90
22633;DHT22;11483;55.828;37.488;2022-07-29T07:57:03;23.50;99.90
22633;DHT22;11483;55.828;37.488;2022-07-29T07:59:28;23.60;99.90
22633;DHT22;11483;55.828;37.488;2022-07-29T08:01:54;23.70;99.90
22633;DHT22;11483;55.828;37.488;2022-07-29T08:04:21;23.50;99.90
22633;DHT22;11483;55.828;37.488;2022-07-29T08:06:47;23.50;99.90
22633;DHT22;11483;55.828;37.488;2022-07-29T08:09:15;23.50;99.90
22633;DHT22;11483;55.828;37.488;2022-07-29T08:11:41;23.20;99.90
22633;DHT22;11483;55.828;37.488;2022-07-29T08:14:07;23.30;99.90
22633;DHT22;11483;55.828;37.488;2022-07-29T08:16:33;22.30;99.90
22633;DHT22;11483;55.828;37.488;2022-07-29T08:18:59;23.70;99.90
22633;DHT22;11483;55.828;37.488;2022-07-29T08:21:30;23.70;99.90
22633;DHT22;11483;55.828;37.488;2022-07-29T08:23:56;23.50;99.90
22633;DHT22;11483;55.828;37.488;2022-07-29T08:26:41;22.90;99.90
22633;DHT22;11483;55.828;37.488;2022-07-29T08:29:07;23.20;99.90
22633;DHT22;11483;55.828;37.488;2022-07-29T08:31:33;23.20;99.90
22633;DHT22;11483;55.828;37.488;2022-07-29T08:33:59;23.20;99.90
22633;DHT22;11483;55.828;37.488;2022-07-29T08:36:25;23.40;99.90
22633;DHT22;11483;55.828;37.488;2022-07-29T08:38:52;24.20;99.90
22633;DHT22;11483;55.828;37.488;2022-07-29T08:41:19;24.60;99.90
22633;DHT22;11483;55.828;37.488;2022-07-29T08:43:45;25.20;99.90
22633;DHT22;11483;55.828;37.488;2022-07-29T08:46:11;25.50;99.90
22633;DHT22;11483;55.828;37.488;2022-07-29T08:48:37;25.30;99.90
22633;DHT22;11483;55.828;37.488;2022-07-29T08:51:05;24.70;99.90
22633;DHT22;11483;55.828;37.488;2022-07-29T08:53:33;24.70;99.90
22633;DHT22;11483;55.828;37.488;2022-07-29T08:55:59;25.00;99.90
22633;DHT22;11483;55.828;37.488;2022-07-29T08:58:31;26.30;99.90
22633;DHT22;11483;55.828;37.488;2022-07-29T09:01:01;28.20;99.90
22633;DHT22;11483;55.828;37.488;2022-07-29T09:03:30;27.70;99.90
22633;DHT22;11483;55.828;37.488;2022-07-29T09:05:58;27.10;99.20
22633;DHT22;11483;55.828;37.488;2022-07-29T09:08:25;28.20;97.90
22633;DHT22;11483;55.828;37.488;2022-07-29T09:10:54;28.40;97.10
22633;DHT22;11483;55.828;37.488;2022-07-29T09:13:24;27.20;96.40
22633;DHT22;11483;55.828;37.488;2022-07-29T09:15:52;27.60;97.40
22633;DHT22;11483;55.828;37.488;2022-07-29T09:18:47;28.50;96.50
22633;DHT22;11483;55.828;37.488;2022-07-29T09:21:18;30.40;93.60
22633;DHT22;11483;55.828;37.488;2022-07-29T09:24:08;32.10;89.40
22633;DHT22;11483;55.828;37.488;2022-07-29T09:26:43;31.70;86.00
22633;DHT22;11483;55.828;37.488;2022-07-29T09:29:17;33.10;80.60
22633;DHT22;11483;55.828;37.488;2022-07-29T09:31:46;32.00;78.40
22633;DHT22;11483;55.828;37.488;2022-07-29T09:34:16;30.40;77.50
22633;DHT22;11483;55.828;37.488;2022-07-29T09:36:44;28.90;83.00
22633;DHT22;11483;55.828;37.488;2022-07-29T09:39:10;28.50;86.30
22633;DHT22;11483;55.828;37.488;2022-07-29T09:41:46;29.10;85.70
22633;DHT22;11483;55.828;37.488;2022-07-29T09:44:12;28.40;88.30
22633;DHT22;11483;55.828;37.488;2022-07-29T09:46:38;27.20;90.10
22633;DHT22;11483;55.828;37.488;2022-07-29T09:49:08;26.30;91.60
22633;DHT22;11483;55.828;37.488;2022-07-29T09:51:34;26.20;92.20
22633;DHT22;11483;55.828;37.488;2022-07-29T09:54:00;25.50;93.30
22633;DHT22;11483;55.828;37.488;2022-07-29T09:56:40;25.30;93.20
22633;DHT22;11483;55.828;37.488;2022-07-29T09:59:07;26.30;92.90
22633;DHT22;11483;55.828;37.488;2022-07-29T10:01:32;27.50;91.90
22633;DHT22;11483;55.828;37.488;2022-07-29T10:03:58;28.00;91.30
22633;DHT22;11483;55.828;37.488;2022-07-29T10:06:24;27.80;91.00
22633;DHT22;11483;55.828;37.488;2022-07-29T10:08:50;27.20;91.90
22633;DHT22;11483;55.828;37.488;2022-07-29T10:11:16;26.80;92.30
22633;DHT22;11483;55.828;37.488;2022-07-29T10:13:43;27.90;90.90
22633;DHT22;11483;55.828;37.488;2022-07-29T10:16:13;29.50;87.40
22633;DHT22;11483;55.828;37.488;2022-07-29T10:18:39;31.40;81.00
22633;DHT22;11483;55.828;37.488;2022-07-29T10:21:05;31.10;76.70
22633;DHT22;11483;55.828;37.488;2022-07-29T10:23:31;31.10;76.00
22633;DHT22;11483;55.828;37.488;2022-07-29T10:25:57;31.60;76.00
22633;DHT22;11483;55.828;37.488;2022-07-29T10:28:23;32.30;73.50
22633;DHT22;11483;55.828;37.488;2022-07-29T10:30:51;32.70;73.20
22633;DHT22;11483;55.828;37.488;2022-07-29T10:34:01;31.70;73.70
22633;DHT22;11483;55.828;37.488;2022-07-29T10:39:56;31.50;73.90
22633;DHT22;11483;55.828;37.488;2022-07-29T10:42:28;30.40;74.70
22633;DHT22;11483;55.828;37.488;2022-07-29T10:44:55;29.50;78.10
22633;DHT22;11483;55.828;37.488;2022-07-29T10:47:26;30.00;78.20
22633;DHT22;11483;55.828;37.488;2022-07-29T10:49:59;29.70;76.90
22633;DHT22;11483;55.828;37.488;2022-07-29T10:52:52;29.30;78.60
22633;DHT22;11483;55.828;37.488;2022-07-29T10:55:36;29.30;78.60
22633;DHT22;11483;55.828;37.488;2022-07-29T10:58:17;30.00;77.00
22633;DHT22;11483;55.828;37.488;2022-07-29T11:00:43;30.20;75.50
22633;DHT22;11483;55.828;37.488;2022-07-29T11:03:09;28.90;77.80
22633;DHT22;11483;55.828;37.488;2022-07-29T11:05:56;29.80;78.50
22633;DHT22;11483;55.828;37.488;2022-07-29T11:08:23;31.30;76.60
22633;DHT22;11483;55.828;37.488;2022-07-29T11:10:51;32.30;74.80
22633;DHT22;11483;55.828;37.488;2022-07-29T11:16:08;29.80;73.70
22633;DHT22;11483;55.828;37.488;2022-07-29T11:18:34;28.30;78.20
22633;DHT22;11483;55.828;37.488;2022-07-29T11:21:00;27.20;81.50
22633;DHT22;11483;55.828;37.488;2022-07-29T11:23:29;26.30;83.80
22633;DHT22;11483;55.828;37.488;2022-07-29T11:29:03;25.10;89.80
22633;DHT22;11483;55.828;37.488;2022-07-29T11:31:37;25.10;90.00
22633;DHT22;11483;55.828;37.488;2022-07-29T11:34:26;25.10;90.10
22633;DHT22;11483;55.828;37.488;2022-07-29T11:39:37;25.20;91.20
22633;DHT22;11483;55.828;37.488;2022-07-29T11:47:32;26.10;91.90
22633;DHT22;11483;55.828;37.488;2022-07-29T11:49:59;27.80;88.40
22633;DHT22;11483;55.828;37.488;2022-07-29T11:55:19;29.50;83.30
22633;DHT22;11483;55.828;37.488;2022-07-29T11:57:49;28.50;82.20
22633;DHT22;11483;55.828;37.488;2022-07-29T12:03:05;27.70;85.40
22633;DHT22;11483;55.828;37.488;2022-07-29T12:05:37;27.20;84.80
22633;DHT22;11483;55.828;37.488;2022-07-29T12:08:08;27.00;86.90
22633;DHT22;11483;55.828;37.488;2022-07-29T12:10:35;28.10;87.30
22633;DHT22;11483;55.828;37.488;2022-07-29T12:13:01;30.30;83.30
22633;DHT22;11483;55.828;37.488;2022-07-29T12:15:27;32.80;78.80
22633;DHT22;11483;55.828;37.488;2022-07-29T12:17:52;34.20;71.90
22633;DHT22;11483;55.828;37.488;2022-07-29T12:20:27;33.40;72.00
22633;DHT22;11483;55.828;37.488;2022-07-29T12:22:54;32.30;72.30
22633;DHT22;11483;55.828;37.488;2022-07-29T12:25:21;31.20;74.60
22633;DHT22;11483;55.828;37.488;2022-07-29T12:27:57;30.70;75.60
22633;DHT22;11483;55.828;37.488;2022-07-29T12:30:23;30.30;76.20
22633;DHT22;11483;55.828;37.488;2022-07-29T12:32:59;30.90;76.10
22633;DHT22;11483;55.828;37.488;2022-07-29T12:35:25;31.60;74.40
22633;DHT22;11483;55.828;37.488;2022-07-29T12:37:51;31.90;74.70
22633;DHT22;11483;55.828;37.488;2022-07-29T12:40:18;31.70;73.60
22633;DHT22;11483;55.828;37.488;2022-07-29T12:43:05;33.40;73.50
22633;DHT22;11483;55.828;37.488;2022-07-29T12:45:32;35.20;67.40
22633;DHT22;11483;55.828;37.488;2022-07-29T12:47:58;36.50;67.20
22633;DHT22;11483;55.828;37.488;2022-07-29T12:50:24;36.70;64.30
22633;DHT22;11483;55.828;37.488;2022-07-29T12:52:50;36.60;64.50
22633;DHT22;11483;55.828;37.488;2022-07-29T12:55:43;36.80;62.70
22633;DHT22;11483;55.828;37.488;2022-07-29T12:58:09;37.80;60.70
22633;DHT22;11483;55.828;37.488;2022-07-29T13:00:35;38.50;60.50
22633;DHT22;11483;55.828;37.488;2022-07-29T13:03:01;38.60;58.60
22633;DHT22;11483;55.828;37.488;2022-07-29T13:05:42;38.30;57.00
22633;DHT22;11483;55.828;37.488;2022-07-29T13:08:26;36.80;57.80
22633;DHT22;11483;55.828;37.488;2022-07-29T13:10:53;35.90;58.90
22633;DHT22;11483;55.828;37.488;2022-07-29T13:13:19;35.00;58.90
22633;DHT22;11483;55.828;37.488;2022-07-29T13:15:45;35.50;58.90
22633;DHT22;11483;55.828;37.488;2022-07-29T13:18:26;35.50;58.40
22633;DHT22;11483;55.828;37.488;2022-07-29T13:20:52;34.30;59.30
22633;DHT22;11483;55.828;37.488;2022-07-29T13:23:18;33.60;60.80
22633;DHT22;11483;55.828;37.488;2022-07-29T13:25:44;32.70;61.50
22633;DHT22;11483;55.828;37.488;2022-07-29T13:28:10;31.90;62.80
22633;DHT22;11483;55.828;37.488;2022-07-29T13:30:37;31.00;64.40
22633;DHT22;11483;55.828;37.488;2022-07-29T13:33:04;30.10;65.20
22633;DHT22;11483;55.828;37.488;2022-07-29T13:35:30;29.50;66.30
22633;DHT22;11483;55.828;37.488;2022-07-29T13:37:56;29.30;67.50
22633;DHT22;11483;55.828;37.488;2022-07-29T13:40:22;28.70;66.80
22633;DHT22;11483;55.828;37.488;2022-07-29T13:42:48;28.20;68.70
22633;DHT22;11483;55.828;37.488;2022-07-29T13:45:13;28.20;70.30
22633;DHT22;11483;55.828;37.488;2022-07-29T13:47:40;28.90;70.30
22633;DHT22;11483;55.828;37.488;2022-07-29T13:50:07;30.20;69.40
22633;DHT22;11483;55.828;37.488;2022-07-29T13:52:35;31.10;66.80
22633;DHT22;11483;55.828;37.488;2022-07-29T13:55:02;31.20;64.40
22633;DHT22;11483;55.828;37.488;2022-07-29T13:57:28;31.00;64.60
22633;DHT22;11483;55.828;37.488;2022-07-29T13:59:54;30.50;66.30
22633;DHT22;11483;55.828;37.488;2022-07-29T14:02:20;30.50;65.30
22633;DHT22;11483;55.828;37.488;2022-07-29T14:04:46;30.60;65.60
22633;DHT22;11483;55.828;37.488;2022-07-29T14:07:12;31.50;65.30
22633;DHT22;11483;55.828;37.488;2022-07-29T14:09:38;32.50;63.70
22633;DHT22;11483;55.828;37.488;2022-07-29T14:12:04;33.10;63.20
22633;DHT22;11483;55.828;37.488;2022-07-29T14:14:30;33.10;62.10
22633;DHT22;11483;55.828;37.488;2022-07-29T14:16:58;32.20;62.70
22633;DHT22;11483;55.828;37.488;2022-07-29T14:19:24;31.10;63.90
22633;DHT22;11483;55.828;37.488;2022-07-29T14:21:50;30.30;65.30
22633;DHT22;11483;55.828;37.488;2022-07-29T14:24:16;29.60;66.10
22633;DHT22;11483;55.828;37.488;2022-07-29T14:26:41;29.00;68.20
22633;DHT22;11483;55.828;37.488;2022-07-29T14:29:07;28.40;70.10
22633;DHT22;11483;55.828;37.488;2022-07-29T14:31:33;27.80;70.30
22633;DHT22;11483;55.828;37.488;2022-07-29T14:33:59;27.20;72.00
22633;DHT22;11483;55.828;37.488;2022-07-29T14:36:25;26.80;73.50
22633;DHT22;11483;55.828;37.488;2022-07-29T14:38:51;26.60;75.00
22633;DHT22;11483;55.828;37.488;2022-07-29T14:41:16;26.50;74.30
22633;DHT22;11483;55.828;37.488;2022-07-29T14:43:42;26.30;75.80
22633;DHT22;11483;55.828;37.488;2022-07-29T14:46:08;26.30;75.80
22633;DHT22;11483;55.828;37.488;2022-07-29T14:48:34;26.10;76.30
22633;DHT22;11483;55.828;37.488;2022-07-29T14:51:00;26.00;78.30
22633;DHT22;11483;55.828;37.488;2022-07-29T14:53:26;26.10;77.70
22633;DHT22;11483;55.828;37.488;2022-07-29T14:55:52;26.70;77.20
22633;DHT22;11483;55.828;37.488;2022-07-29T14:58:17;27.40;75.80
22633;DHT22;11483;55.828;37.488;2022-07-29T15:00:45;28.60;74.50
22633;DHT22;11483;55.828;37.488;2022-07-29T15:03:10;30.00;73.50
22633;DHT22;11483;55.828;37.488;2022-07-29T15:05:36;30.50;71.00
22633;DHT22;11483;55.828;37.488;2022-07-29T15:08:02;30.90;69.40
22633;DHT22;11483;55.828;37.488;2022-07-29T15:10:28;31.10;69.80
22633;DHT22;11483;55.828;37.488;2022-07-29T15:12:55;30.30;69.60
22633;DHT22;11483;55.828;37.488;2022-07-29T15:15:21;29.80;70.70
22633;DHT22;11483;55.828;37.488;2022-07-29T15:17:47;29.10;71.40
22633;DHT22;11483;55.828;37.488;2022-07-29T15:20:13;28.40;73.50
22633;DHT22;11483;55.828;37.488;2022-07-29T15:22:39;27.60;73.70
22633;DHT22;11483;55.828;37.488;2022-07-29T15:25:07;27.10;75.40
22633;DHT22;11483;55.828;37.488;2022-07-29T15:27:33;26.30;77.70
22633;DHT22;11483;55.828;37.488;2022-07-29T15:29:59;25.80;78.70
22633;DHT22;11483;55.828;37.488;2022-07-29T15:32:25;25.30;84.00
22633;DHT22;11483;55.828;37.488;2022-07-29T15:34:51;24.50;90.30
22633;DHT22;11483;55.828;37.488;2022-07-29T15:37:16;23.60;93.40
22633;DHT22;11483;55.828;37.488;2022-07-29T15:42:27;22.80;98.30
22633;DHT22;11483;55.828;37.488;2022-07-29T15:44:53;22.70;99.90
22633;DHT22;11483;55.828;37.488;2022-07-29T15:47:18;22.50;99.90
22633;DHT22;11483;55.828;37.488;2022-07-29T15:49:44;23.10;99.90
22633;DHT22;11483;55.828;37.488;2022-07-29T15:52:10;23.10;99.90